createdAt,value
2019-02-21T00:02:32.947Z,17.47
2019-02-21T00:07:40.918Z,20.63
2019-02-21T00:12:50.275Z,20.43
2019-02-21T00:17:56.154Z,16.53
2019-02-21T00:23:02.201Z,17.30
2019-02-21T00:28:08.326Z,19.50
2019-02-21T00:33:14.120Z,18.57
2019-02-21T00:38:20.231Z,17.50
2019-02-21T00:43:26.554Z,22.77
2019-02-21T00:48:32.894Z,15.60
2019-02-21T00:53:39.281Z,16.23
2019-02-21T00:58:45.100Z,18.73
2019-02-21T01:03:52.417Z,16.90
2019-02-21T01:08:59.642Z,23.93
2019-02-21T01:14:06.352Z,13.43
2019-02-21T01:19:13.185Z,16.13
2019-02-21T01:24:19.381Z,20.67
2019-02-21T01:29:25.413Z,20.00
2019-02-21T01:34:35.263Z,18.07
2019-02-21T01:39:41.656Z,15.57
2019-02-21T01:44:47.620Z,15.63
2019-02-21T01:49:53.678Z,16.37
2019-02-21T01:54:59.405Z,21.93
2019-02-21T02:00:08.764Z,16.20
2019-02-21T02:05:15.411Z,20.40
2019-02-21T02:10:23.580Z,19.50
2019-02-21T02:15:31.839Z,17.70
2019-02-21T02:20:39.296Z,21.57
2019-02-21T02:25:44.902Z,20.67
2019-02-21T02:30:50.539Z,23.00
2019-02-21T02:35:56.277Z,21.53
2019-02-21T02:41:02.115Z,25.33
2019-02-21T02:46:08.973Z,22.10
2019-02-21T02:51:14.708Z,28.20
2019-02-21T02:56:24.176Z,30.40
2019-02-21T03:01:34.643Z,30.30
2019-02-21T03:06:39.762Z,30.43
2019-02-21T03:11:45.440Z,28.27
2019-02-21T03:16:53.307Z,29.00
2019-02-21T03:22:01.164Z,35.13
2019-02-21T03:27:08.111Z,37.17
2019-02-21T03:32:13.863Z,28.67
2019-02-21T03:37:19.730Z,33.20
2019-02-21T03:42:28.811Z,29.50
2019-02-21T03:47:34.922Z,34.80
2019-02-21T03:52:43.654Z,32.87
2019-02-21T03:57:49.245Z,33.27
2019-02-21T04:02:55.966Z,29.53
2019-02-21T04:08:01.853Z,37.53
2019-02-21T04:13:08.006Z,39.63
2019-02-21T04:18:15.883Z,41.67
2019-02-21T04:23:21.924Z,40.40
2019-02-21T04:28:27.920Z,41.17
2019-02-21T04:33:34.486Z,39.60
2019-02-21T04:38:41.801Z,39.87
2019-02-21T04:43:47.445Z,42.30
2019-02-21T04:48:54.259Z,43.57
2019-02-21T04:53:59.939Z,43.90
2019-02-21T04:59:06.810Z,45.17
2019-02-21T05:04:17.980Z,40.03
2019-02-21T05:09:23.940Z,44.43
2019-02-21T05:14:31.336Z,45.00
2019-02-21T05:19:38.424Z,46.37
2019-02-21T05:24:45.580Z,45.73
2019-02-21T05:29:52.963Z,52.23
2019-02-21T05:35:02.150Z,49.77
2019-02-21T05:40:21.778Z,48.50
2019-02-21T05:45:32.334Z,56.90
2019-02-21T05:50:45.254Z,55.77
2019-02-21T05:56:10.118Z,51.13
2019-02-21T06:01:20.584Z,53.40
2019-02-21T06:06:35.115Z,52.37
2019-02-21T06:12:01.145Z,49.40
2019-02-21T06:17:15.739Z,50.70
2019-02-21T06:22:23.494Z,50.00
2019-02-21T06:27:39.151Z,56.80
2019-02-21T06:32:44.957Z,50.33
2019-02-21T06:37:50.993Z,53.17
2019-02-21T06:42:57.313Z,45.83
2019-02-21T06:48:03.171Z,46.07
2019-02-21T06:53:09.634Z,55.10
2019-02-21T06:58:16.757Z,46.50
2019-02-21T07:03:22.773Z,46.67
2019-02-21T07:08:28.450Z,51.10
2019-02-21T07:13:34.405Z,47.37
2019-02-21T07:18:41.000Z,42.73
2019-02-21T07:23:46.825Z,48.83
2019-02-21T07:28:53.241Z,46.30
2019-02-21T07:34:01.554Z,44.07
2019-02-21T07:39:16.890Z,42.37
2019-02-21T07:44:15.162Z,45.40
2019-02-21T07:49:21.268Z,46.30
2019-02-21T07:54:27.476Z,41.40
2019-02-21T07:59:33.922Z,35.90
2019-02-21T08:04:40.037Z,41.03
2019-02-21T08:09:45.623Z,46.70
2019-02-21T08:14:56.139Z,43.83
2019-02-21T08:20:08.376Z,44.90
2019-02-21T08:25:10.998Z,44.67
2019-02-21T08:30:16.836Z,44.17
2019-02-21T08:35:23.162Z,45.10
2019-02-21T08:40:29.260Z,41.60
2019-02-21T08:45:35.789Z,50.47
2019-02-21T08:50:41.655Z,48.13
2019-02-21T08:55:47.807Z,45.83
2019-02-21T09:00:54.489Z,46.57
2019-02-21T09:06:00.211Z,44.40
2019-02-21T09:11:06.127Z,41.57
2019-02-21T09:16:12.766Z,51.27
2019-02-21T09:21:18.694Z,45.93
2019-02-21T09:26:24.400Z,46.07
2019-02-21T09:31:30.840Z,41.57
2019-02-21T09:36:36.473Z,39.33
2019-02-21T09:41:42.121Z,34.30
2019-02-21T09:46:47.877Z,41.73
2019-02-21T09:51:53.684Z,40.50
2019-02-21T09:56:59.980Z,40.43
2019-02-21T10:02:06.238Z,35.23
2019-02-21T10:07:11.794Z,37.73
2019-02-21T10:12:18.890Z,41.93
2019-02-21T10:17:24.911Z,36.90
2019-02-21T10:22:31.538Z,35.87
2019-02-21T10:27:37.796Z,34.53
2019-02-21T10:32:43.640Z,34.83
2019-02-21T10:37:49.274Z,34.50
2019-02-21T10:42:55.221Z,33.10
2019-02-21T10:48:00.810Z,35.90
2019-02-21T10:53:07.049Z,32.73
2019-02-21T10:58:13.515Z,30.77
2019-02-21T11:03:20.090Z,30.13
2019-02-21T11:08:27.024Z,28.63
2019-02-21T11:13:33.136Z,29.07
2019-02-21T11:18:41.316Z,32.73
2019-02-21T11:23:47.144Z,34.27
2019-02-21T11:28:53.439Z,29.00
2019-02-21T11:33:59.312Z,27.40
2019-02-21T11:39:07.212Z,28.53
2019-02-21T11:44:13.040Z,36.17
2019-02-21T11:49:19.186Z,27.57
2019-02-21T11:54:27.233Z,47.98
2019-02-21T11:59:33.843Z,25.37
2019-02-21T12:04:42.556Z,26.67
2019-02-21T12:09:49.497Z,25.17
2019-02-21T12:14:56.210Z,31.10
2019-02-21T12:20:02.065Z,23.17
2019-02-21T12:25:12.809Z,27.63
2019-02-21T12:30:22.283Z,23.30
2019-02-21T12:35:29.912Z,25.53
2019-02-21T12:40:36.616Z,49.87
2019-02-21T12:45:42.412Z,21.13
2019-02-21T12:50:48.887Z,19.43
2019-02-21T12:55:54.665Z,21.70
2019-02-21T13:01:00.328Z,23.57
2019-02-21T13:06:06.545Z,22.13
2019-02-21T13:11:12.949Z,15.67
2019-02-21T13:16:19.339Z,21.20
2019-02-21T13:21:25.329Z,22.03
2019-02-21T13:26:31.819Z,18.97
2019-02-21T13:31:37.657Z,15.67
2019-02-21T13:36:44.619Z,19.43
2019-02-21T13:41:51.030Z,20.27
2019-02-21T13:46:57.137Z,17.43
2019-02-21T13:52:03.132Z,17.13
2019-02-21T13:57:09.182Z,18.53
2019-02-21T14:02:15.421Z,16.80
2019-02-21T14:07:21.730Z,14.87
2019-02-21T14:12:28.761Z,18.87
2019-02-21T14:17:35.553Z,17.50
2019-02-21T14:22:42.565Z,16.87
2019-02-21T14:27:49.540Z,19.60
2019-02-21T14:32:57.234Z,16.07
2019-02-21T14:38:04.563Z,18.73
2019-02-21T14:43:16.111Z,19.40
2019-02-21T14:48:20.509Z,20.90
2019-02-21T14:53:26.925Z,20.30
2019-02-21T14:58:33.095Z,15.07
2019-02-21T15:03:38.900Z,22.27
2019-02-21T15:08:47.249Z,18.17
2019-02-21T15:13:53.439Z,19.60
2019-02-21T15:19:00.730Z,18.97
2019-02-21T15:24:06.866Z,15.33
2019-02-21T15:29:13.082Z,17.77
2019-02-21T15:34:18.962Z,17.73
2019-02-21T15:39:24.990Z,15.90
2019-02-21T15:44:32.544Z,17.97
2019-02-21T15:49:39.241Z,16.63
2019-02-21T15:54:45.083Z,18.07
2019-02-21T15:59:51.602Z,16.27
2019-02-21T16:04:57.701Z,15.77
2019-02-21T16:10:06.866Z,20.10
2019-02-21T16:15:16.395Z,15.53
2019-02-21T16:20:21.917Z,19.07
2019-02-21T16:25:30.379Z,20.13
2019-02-21T16:30:36.359Z,17.63
2019-02-21T16:35:42.852Z,17.37
2019-02-21T16:40:49.118Z,18.30
2019-02-21T16:45:54.903Z,15.60
2019-02-21T16:51:02.190Z,17.33
2019-02-21T16:56:07.965Z,16.00
2019-02-21T17:01:18.503Z,16.37
2019-02-21T17:06:26.905Z,22.33
2019-02-21T17:11:34.534Z,18.00
2019-02-21T17:16:40.705Z,16.50
2019-02-21T17:21:47.564Z,16.53
2019-02-21T17:26:55.726Z,16.10
2019-02-21T17:32:05.306Z,16.07
2019-02-21T17:37:11.231Z,16.03
2019-02-21T17:42:19.530Z,19.20
2019-02-21T17:47:26.498Z,17.23
2019-02-21T17:52:37.212Z,16.00
2019-02-21T17:57:43.330Z,17.87
2019-02-21T18:02:49.179Z,22.37
2019-02-21T18:07:55.365Z,18.63
2019-02-21T18:13:01.708Z,21.57
2019-02-21T18:18:12.176Z,22.77
2019-02-21T18:23:18.054Z,24.13
2019-02-21T18:28:26.023Z,28.17
2019-02-21T18:33:32.422Z,26.83
2019-02-21T18:38:42.577Z,26.53
2019-02-21T18:43:48.289Z,27.40
2019-02-21T18:48:54.424Z,32.53
2019-02-21T18:54:00.188Z,26.27
2019-02-21T18:59:08.262Z,30.83
2019-02-21T19:04:15.449Z,30.43
2019-02-21T19:09:26.907Z,32.27
2019-02-21T19:14:34.007Z,31.27
2019-02-21T19:19:41.718Z,31.90
2019-02-21T19:24:47.447Z,31.67
2019-02-21T19:29:53.678Z,32.20
2019-02-21T19:34:59.628Z,33.13
2019-02-21T19:40:08.396Z,31.63
2019-02-21T19:45:14.047Z,30.37
2019-02-21T19:50:19.930Z,31.00
2019-02-21T19:55:26.729Z,34.10
2019-02-21T20:00:33.659Z,33.37
2019-02-21T20:05:39.317Z,37.73
2019-02-21T20:10:49.324Z,38.10
2019-02-21T20:15:55.357Z,38.20
2019-02-21T20:21:02.238Z,40.33
2019-02-21T20:26:18.007Z,45.20
2019-02-21T20:31:19.520Z,42.27
2019-02-21T20:36:26.336Z,44.70
2019-02-21T20:41:32.184Z,37.53
2019-02-21T20:46:38.420Z,39.43
2019-02-21T20:51:44.197Z,42.43
2019-02-21T20:56:50.456Z,39.73
2019-02-21T21:01:56.197Z,40.27
2019-02-21T21:07:05.126Z,39.17
2019-02-21T21:12:11.353Z,39.53
2019-02-21T21:17:19.711Z,40.93
2019-02-21T21:22:25.388Z,40.27
2019-02-21T21:27:31.343Z,35.30
2019-02-21T21:32:39.618Z,35.50
2019-02-21T21:37:47.429Z,36.23
2019-02-21T21:42:55.637Z,37.57
2019-02-21T21:48:01.473Z,35.87
2019-02-21T21:53:10.593Z,35.40
2019-02-21T21:58:16.557Z,39.40
2019-02-21T22:03:28.973Z,39.23
2019-02-21T22:08:36.253Z,41.37
2019-02-21T22:13:42.764Z,43.83
2019-02-21T22:18:48.363Z,43.43
2019-02-21T22:23:54.572Z,37.93
2019-02-21T22:29:01.962Z,40.83
2019-02-21T22:34:09.123Z,40.03
2019-02-21T22:39:16.515Z,37.90
2019-02-21T22:44:23.029Z,36.20
2019-02-21T22:49:29.061Z,39.47
2019-02-21T22:54:35.313Z,34.17
2019-02-21T22:59:41.906Z,31.40
2019-02-21T23:04:53.822Z,28.10
2019-02-21T23:09:59.700Z,27.93
2019-02-21T23:15:06.866Z,25.67
2019-02-21T23:20:12.487Z,24.80
2019-02-21T23:25:19.221Z,21.83
2019-02-21T23:30:26.479Z,23.33
2019-02-21T23:35:32.387Z,25.50
2019-02-21T23:40:38.582Z,21.20
2019-02-21T23:45:48.486Z,22.60
2019-02-21T23:50:54.227Z,20.97
2019-02-21T23:56:00.052Z,18.43
